Pagrindinis puslapis
METAR-TAF:

METAR-TAF

Oro uostai :

Bankokas, Tailandas

platuma: 13-54-45N, ilguma: 100-36-24E, Aukštis: 4 m

Dabartinis oras

Ataskaita buvo paskelbta 48 minutes, ne 07:30 UTC
Vėjas 9 kt iš Rytų, svyruoja nuo Šiaurės Rytų ir Pietryčių
Temperatūra 34°C
Drėgmė 34%
Slėgis 1014 hPa
Matomumas: 9000 m

METAR: VTBD 230730Z 08009KT 040V130 9000 NSC 34/16 Q1014 NOSIG

Laikas: 15:18 (08:18 UTC)

Prognozė

Ataskaita buvo paskelbta 3 valandos ir 18 minutes, ne 05:00 UTC
Prognozė galioja nuo 23 metu 06 UTC su 24 metu 12 UTC
Vėjas 8 kt iš Rytų
Matomumas: 8000 m
Mažai debesys ne aukštis 4000 ft
Tapsmas
nuo 23 metu 22 UTC su 23 metu 24 UTC
Vėjas 5 kt iš Šiaurės
Matomumas: 8000 m
Tapsmas
nuo 24 metu 02 UTC su 24 metu 04 UTC
Vėjas 8 kt iš Rytų
Matomumas 10 km arba daugiau

TAF: VTBD 230500Z 2306/2412 08008KT 8000 FEW040 BECMG 2322/2324 01005KT 8000 BECMG 2402/2404 08008KT 9999

Orai ataskaitas ir orų prognozės (METAR, TAF).

turimą stotys yra geltonos ir raudonos taškus žemėlapyje.

Perkelti pele per norėdami pamatyti stoties vardą.

Tada spustelėkite, norėdami matyti oro stebėjimo ir prognozės.

Norėdami pakeisti žemėlapį: spustelėkite ant žalios mygtukų su juodo kryžiaus žemyn,; žalią mygtuką su brūkšneliu, jei norite nutolinti; arba žalių rodyklių gretimoms žemėlapius.


METAR-TAF: